Saldanha — 9HFM9 — position and weather

sailwx.info

Track history (hours):
 
Tides and Currents Weather Stations Pressure Air Temp Water Temp Dewpoint Dewpoint Depression Visibility Wind Speed Wind Dir Waves Ship Positions

Saldanha

Last reported at 2017-Dec-13 19:06 UTC. Time now 2017-Dec-15 02:41 UTC.
Position N 01°22' E 103°17'.

Length 225 m; draft 10.6 m.

Type: Cargo ship. MMSI: 256913000.

Date/timePositionNaut miles runAvg speedWind from/ knotsBaromVisibWave heightAir tempDewpointWater temp
2017-Dec-13 19:06N 01°22' E 103°17'413.7
2017-Dec-13 18:50N 01°19' E 103°19'513.9
2017-Dec-13 18:30N 01°16' E 103°23'713.5
2017-Dec-13 18:00N 01°14' E 103°29'713.4
2017-Dec-13 17:30N 01°12' E 103°35'612.7
2017-Dec-13 17:00N 01°10' E 103°41'4 8.5
2017-Dec-13 16:30N 01°09' E 103°46'510.0
2017-Dec-13 15:59N 01°11' E 103°50'5 9.9
2017-Dec-13 15:30N 01°14' E 103°55'4 7.5
2017-Dec-13 14:59N 01°16' E 103°58'1 0.1
2017-Dec-13 04:38N 01°17' E 103°58'0 0.0
2017-Dec-13 04:23N 01°17' E 103°58'0 0.1
2017-Dec-13 03:56N 01°17' E 103°58'0 0.1
2017-Dec-12 22:14N 01°17' E 103°58'1 4.0
2017-Dec-12 21:57N 01°16' E 103°57'2 3.6
2017-Dec-12 21:30N 01°16' E 103°59'3 6.0
2017-Dec-12 20:59N 01°16' E 104°02'3 7.3
2017-Dec-12 20:30N 01°16' E 104°06'  
2017-Dec-07 10:39N 23°20' E 119°53'213.0
2017-Dec-07 10:30N 23°22' E 119°53'1613.1
2017-Dec-07 09:19N 23°37' E 119°55'  
2017-Dec-04 08:10N 34°01' E 129°55'311.7
2017-Dec-04 07:55N 34°01' E 129°59'511.5
2017-Dec-04 07:31N 34°02' E 130°04'611.6
2017-Dec-04 07:00N 34°02' E 130°11'611.3
2017-Dec-04 06:31N 34°03' E 130°18'611.3
2017-Dec-04 06:01N 34°03' E 130°25'611.3
2017-Dec-04 05:30N 34°03' E 130°32'611.6
2017-Dec-04 05:00N 34°03' E 130°39'611.3
2017-Dec-04 04:31N 34°04' E 130°45'510.4
2017-Dec-04 04:00N 34°01' E 130°51'4 7.1
2017-Dec-04 03:30N 33°58' E 130°53'3 5.5
2017-Dec-04 03:01N 33°57' E 130°50'0 0.1
2017-Dec-04 02:30N 33°57' E 130°49'0 0.0
2017-Dec-04 01:57N 33°57' E 130°49'0 0.0
2017-Dec-04 01:27N 33°57' E 130°49'0 0.1
2017-Dec-04 01:00N 33°57' E 130°50'0 0.0
2017-Dec-04 00:31N 33°57' E 130°50'0 0.1
2017-Dec-04 00:00N 33°57' E 130°49'0 0.0
2017-Dec-03 23:31N 33°57' E 130°49'0 0.0
2017-Dec-03 22:57N 33°57' E 130°49'0 0.0
2017-Dec-03 22:31N 33°57' E 130°49'0 0.0
2017-Dec-03 21:57N 33°57' E 130°49'0 0.0
2017-Dec-03 21:30N 33°57' E 130°49'0 0.0
2017-Dec-03 21:00N 33°57' E 130°49'0 0.0
2017-Dec-03 20:27N 33°57' E 130°49'0 0.0
2017-Dec-03 19:58N 33°57' E 130°49'0 0.0
2017-Dec-03 19:31N 33°57' E 130°49'0 0.1
2017-Dec-03 19:01N 33°57' E 130°50'0 0.1
2017-Dec-03 18:30N 33°57' E 130°49'0 0.0
2017-Dec-03 18:00N 33°57' E 130°49'  
Track history (hours):
 
Tides and Currents Weather Stations Pressure Air Temp Water Temp Dewpoint Dewpoint Depression Visibility Wind Speed Wind Dir Waves Ship Positions

Saldanha

Last reported at 2017-Dec-13 19:06 UTC. Time now 2017-Dec-15 02:41 UTC.
Position N 01°22' E 103°17'.

Length 225 m; draft 10.6 m.

Type: Cargo ship. MMSI: 256913000.

Date/timePositionNaut miles runAvg speedWind from/ knotsBaromVisibWave heightAir tempDewpointWater temp
2017-Dec-13 19:06N 01°22' E 103°17'413.7
2017-Dec-13 18:50N 01°19' E 103°19'513.9
2017-Dec-13 18:30N 01°16' E 103°23'713.5
2017-Dec-13 18:00N 01°14' E 103°29'713.4
2017-Dec-13 17:30N 01°12' E 103°35'612.7
2017-Dec-13 17:00N 01°10' E 103°41'4 8.5
2017-Dec-13 16:30N 01°09' E 103°46'510.0
2017-Dec-13 15:59N 01°11' E 103°50'5 9.9
2017-Dec-13 15:30N 01°14' E 103°55'4 7.5
2017-Dec-13 14:59N 01°16' E 103°58'1 0.1
2017-Dec-13 04:38N 01°17' E 103°58'0 0.0
2017-Dec-13 04:23N 01°17' E 103°58'0 0.1
2017-Dec-13 03:56N 01°17' E 103°58'0 0.1
2017-Dec-12 22:14N 01°17' E 103°58'1 4.0
2017-Dec-12 21:57N 01°16' E 103°57'2 3.6
2017-Dec-12 21:30N 01°16' E 103°59'3 6.0
2017-Dec-12 20:59N 01°16' E 104°02'3 7.3
2017-Dec-12 20:30N 01°16' E 104°06'  
2017-Dec-07 10:39N 23°20' E 119°53'213.0
2017-Dec-07 10:30N 23°22' E 119°53'1613.1
2017-Dec-07 09:19N 23°37' E 119°55'  
2017-Dec-04 08:10N 34°01' E 129°55'311.7
2017-Dec-04 07:55N 34°01' E 129°59'511.5
2017-Dec-04 07:31N 34°02' E 130°04'611.6
2017-Dec-04 07:00N 34°02' E 130°11'611.3
2017-Dec-04 06:31N 34°03' E 130°18'611.3
2017-Dec-04 06:01N 34°03' E 130°25'611.3
2017-Dec-04 05:30N 34°03' E 130°32'611.6
2017-Dec-04 05:00N 34°03' E 130°39'611.3
2017-Dec-04 04:31N 34°04' E 130°45'510.4
2017-Dec-04 04:00N 34°01' E 130°51'4 7.1
2017-Dec-04 03:30N 33°58' E 130°53'3 5.5
2017-Dec-04 03:01N 33°57' E 130°50'0 0.1
2017-Dec-04 02:30N 33°57' E 130°49'0 0.0
2017-Dec-04 01:57N 33°57' E 130°49'0 0.0
2017-Dec-04 01:27N 33°57' E 130°49'0 0.1
2017-Dec-04 01:00N 33°57' E 130°50'0 0.0
2017-Dec-04 00:31N 33°57' E 130°50'0 0.1
2017-Dec-04 00:00N 33°57' E 130°49'0 0.0
2017-Dec-03 23:31N 33°57' E 130°49'0 0.0
2017-Dec-03 22:57N 33°57' E 130°49'0 0.0
2017-Dec-03 22:31N 33°57' E 130°49'0 0.0
2017-Dec-03 21:57N 33°57' E 130°49'0 0.0
2017-Dec-03 21:30N 33°57' E 130°49'0 0.0
2017-Dec-03 21:00N 33°57' E 130°49'0 0.0
2017-Dec-03 20:27N 33°57' E 130°49'0 0.0
2017-Dec-03 19:58N 33°57' E 130°49'0 0.0
2017-Dec-03 19:31N 33°57' E 130°49'0 0.1
2017-Dec-03 19:01N 33°57' E 130°50'0 0.1
2017-Dec-03 18:30N 33°57' E 130°49'0 0.0
2017-Dec-03 18:00N 33°57' E 130°49'  

Dump ship's entire track history